Blythe, CA

8:43 AM PDT on September 18, 2014 (GMT -0700)
Blythe | Change Station
CLOSE
Current Station
Airport
Location: Blythe,
Elevation: 397 ft
Nearby Weather Stations

Elev 397 ft 33.62 °N, 114.72 °W | Updated 51 minutes ago

Clear
Clear
86 °F
Feels Like 89 °F
N
6
Wind Variable Wind from SSE

Today
High -- | Low -- °F
--% Chance of Precip.
Yesterday
High -- | Low -- °F
Precip. -- in
6:24 AM 6:41 PM
Waning Crescent, 26% visible
Pressure 29.71 in
Visibility 10.0 miles
Clouds Clear
Heat Index 89 °F
Dew Point 68 °F
Humidity 55%
Rainfall 0.00 in
Snow Depth 0 in , 1 in , 0 in
UV 1 out of 12
Pollen 8.70 out of 12
Ozone Good
Flu Activity Not available.
METAR KBLH 181452Z AUTO 15005KT 10SM CLR 30/20 A2973 RMK AO2 SLP060 T03000200 53012

More Conditions Fewer Conditions

Pressure 29.71 in
Visibility 10.0 miles
Clouds Clear
Heat Index 89 °F
Dew Point 68 °F
Humidity 55%
Rainfall 0.00 in
Snow Depth 0 in , 1 in , 0 in
UV 1 out of 12
Pollen 8.70 out of 12
Ozone Good
Flu Activity Not available.
METAR KBLH 181452Z AUTO 15005KT 10SM CLR 30/20 A2973 RMK AO2 SLP060 T03000200 53012

More Conditions Fewer Conditions

10-Day Weather Forecast

Almanac

Astronomy

Sep. 18, 2014 Rise Set
Actual Time 6:24 AM PDT 6:41 PM PDT
Civil Twilight 5:59 AM PDT 7:05 PM PDT
Nautical Twilight 5:30 AM PDT 7:34 PM PDT
Astronomical Twilight 5:00 AM PDT 8:04 PM PDT
Moon 1:31 AM PDT 3:24 PM PDT
Length of Visible Light 13h 06m
Length of Day
12h 16m
Tomorrow will be 2m 4s shorter.
Waning Crescent, 26% of the Moon is Illuminated
Today
Waning Crescent
Sep 24
New
Oct 1
First Quarter
Oct 8
Full
Oct 15
Last Quarter

Today's Extremes

State Highs State Lows

Community

WunderPhotos

Upload Photos

1,754,388 photos uploaded!

Nearby

Air Quality

  Air Quality AQ Index Pollutant
Yesterday Good
OZONE
Yesterday Good
PM10
Current Good
OZONE
Thursday Good
PM10
Thursday Good
OZONE
Thursday Good
CO
Thursday Good
NO2

Snow Depth

Station Depth Elevation
Tahoe City Cross 0 in 6750 ft
Fallen Leaf 0 in 6300 ft
Leavitt Meadows 1 in 7200 ft
Independence Camp 0 in 7000 ft
Forestdale Creek 0 in 8029 ft

Earthquake Activity

City Distance Mag. Time & Date
La Quinta, California 100 miles 2.7 8:59 PM PDT
2014-09-15
Minimum magnitude displayed is 2.5.

Coastal Water Temperatures

Place Temperature
No Stations Reporting

Nearby Weather Stations